sensor_id;sensor_type;location;lat;lon;timestamp;temperature;humidity
25554;DHT22;13446;50.926;5.332;2024-02-21T00:01:06;11.10;99.90
25554;DHT22;13446;50.926;5.332;2024-02-21T00:03:32;10.90;99.90
25554;DHT22;13446;50.926;5.332;2024-02-21T00:05:58;10.80;99.90
25554;DHT22;13446;50.926;5.332;2024-02-21T00:08:24;10.80;99.90
25554;DHT22;13446;50.926;5.332;2024-02-21T00:10:49;10.80;99.90
25554;DHT22;13446;50.926;5.332;2024-02-21T00:13:26;10.80;99.90
25554;DHT22;13446;50.926;5.332;2024-02-21T00:16:01;10.90;99.90
25554;DHT22;13446;50.926;5.332;2024-02-21T00:18:46;11.00;99.90
25554;DHT22;13446;50.926;5.332;2024-02-21T00:21:21;11.10;99.90
25554;DHT22;13446;50.926;5.332;2024-02-21T00:23:55;11.00;99.90
25554;DHT22;13446;50.926;5.332;2024-02-21T00:26:27;10.90;99.90
25554;DHT22;13446;50.926;5.332;2024-02-21T00:32:15;11.00;99.90
25554;DHT22;13446;50.926;5.332;2024-02-21T00:34:56;10.90;99.90
25554;DHT22;13446;50.926;5.332;2024-02-21T00:37:42;11.10;99.90
25554;DHT22;13446;50.926;5.332;2024-02-21T00:40:20;11.10;99.90
25554;DHT22;13446;50.926;5.332;2024-02-21T00:43:07;10.80;99.90
25554;DHT22;13446;50.926;5.332;2024-02-21T00:49:12;10.90;99.90
25554;DHT22;13446;50.926;5.332;2024-02-21T00:51:44;10.90;99.90
25554;DHT22;13446;50.926;5.332;2024-02-21T00:54:10;10.70;99.90
25554;DHT22;13446;50.926;5.332;2024-02-21T00:56:36;10.60;99.90
25554;DHT22;13446;50.926;5.332;2024-02-21T00:59:02;10.70;99.90
25554;DHT22;13446;50.926;5.332;2024-02-21T01:01:28;10.70;99.90
25554;DHT22;13446;50.926;5.332;2024-02-21T01:03:54;10.70;99.90
25554;DHT22;13446;50.926;5.332;2024-02-21T01:06:20;10.70;99.90
25554;DHT22;13446;50.926;5.332;2024-02-21T01:08:49;10.60;99.90
25554;DHT22;13446;50.926;5.332;2024-02-21T01:14:01;10.80;99.90
25554;DHT22;13446;50.926;5.332;2024-02-21T01:16:33;10.90;99.90
25554;DHT22;13446;50.926;5.332;2024-02-21T01:19:15;10.80;99.90
25554;DHT22;13446;50.926;5.332;2024-02-21T01:21:59;10.80;99.90
25554;DHT22;13446;50.926;5.332;2024-02-21T01:24:31;10.80;99.90
25554;DHT22;13446;50.926;5.332;2024-02-21T01:27:03;10.90;99.90
25554;DHT22;13446;50.926;5.332;2024-02-21T01:29:30;10.90;99.90
25554;DHT22;13446;50.926;5.332;2024-02-21T01:31:55;10.80;99.90
25554;DHT22;13446;50.926;5.332;2024-02-21T01:34:21;10.90;99.90
25554;DHT22;13446;50.926;5.332;2024-02-21T01:36:57;10.90;99.90
25554;DHT22;13446;50.926;5.332;2024-02-21T01:39:24;11.10;99.90
25554;DHT22;13446;50.926;5.332;2024-02-21T01:41:51;11.00;99.90
25554;DHT22;13446;50.926;5.332;2024-02-21T01:44:17;10.90;99.90
25554;DHT22;13446;50.926;5.332;2024-02-21T01:46:42;10.90;99.90
25554;DHT22;13446;50.926;5.332;2024-02-21T01:49:14;10.80;99.90
25554;DHT22;13446;50.926;5.332;2024-02-21T01:51:40;10.80;99.90
25554;DHT22;13446;50.926;5.332;2024-02-21T01:54:10;10.70;99.90
25554;DHT22;13446;50.926;5.332;2024-02-21T01:59:54;10.70;99.90
25554;DHT22;13446;50.926;5.332;2024-02-21T02:02:26;10.70;99.90
25554;DHT22;13446;50.926;5.332;2024-02-21T02:05:08;10.70;99.90
25554;DHT22;13446;50.926;5.332;2024-02-21T02:07:55;10.60;99.90
25554;DHT22;13446;50.926;5.332;2024-02-21T02:10:26;10.70;99.90
25554;DHT22;13446;50.926;5.332;2024-02-21T02:12:52;10.70;99.90
25554;DHT22;13446;50.926;5.332;2024-02-21T02:15:21;10.80;99.90
25554;DHT22;13446;50.926;5.332;2024-02-21T02:18:12;10.70;99.90
25554;DHT22;13446;50.926;5.332;2024-02-21T02:20:44;10.80;99.90
25554;DHT22;13446;50.926;5.332;2024-02-21T02:23:12;10.70;99.90
25554;DHT22;13446;50.926;5.332;2024-02-21T02:25:40;10.70;99.90
25554;DHT22;13446;50.926;5.332;2024-02-21T02:28:07;10.80;99.90
25554;DHT22;13446;50.926;5.332;2024-02-21T02:30:36;10.70;99.90
25554;DHT22;13446;50.926;5.332;2024-02-21T02:33:09;10.70;99.90
25554;DHT22;13446;50.926;5.332;2024-02-21T02:35:36;10.60;99.90
25554;DHT22;13446;50.926;5.332;2024-02-21T02:38:02;10.70;99.90
25554;DHT22;13446;50.926;5.332;2024-02-21T02:40:31;10.60;99.90
25554;DHT22;13446;50.926;5.332;2024-02-21T02:42:57;10.60;99.90
25554;DHT22;13446;50.926;5.332;2024-02-21T02:45:23;10.70;99.90
25554;DHT22;13446;50.926;5.332;2024-02-21T02:47:49;10.80;99.90
25554;DHT22;13446;50.926;5.332;2024-02-21T02:50:15;10.90;99.90
25554;DHT22;13446;50.926;5.332;2024-02-21T02:52:42;10.90;99.90
25554;DHT22;13446;50.926;5.332;2024-02-21T02:55:09;10.80;99.90
25554;DHT22;13446;50.926;5.332;2024-02-21T02:57:34;10.90;99.90
25554;DHT22;13446;50.926;5.332;2024-02-21T03:00:00;10.80;99.90
25554;DHT22;13446;50.926;5.332;2024-02-21T03:02:29;10.80;99.90
25554;DHT22;13446;50.926;5.332;2024-02-21T03:04:56;10.70;99.90
25554;DHT22;13446;50.926;5.332;2024-02-21T03:07:26;10.80;99.90
25554;DHT22;13446;50.926;5.332;2024-02-21T03:09:55;10.80;99.90
25554;DHT22;13446;50.926;5.332;2024-02-21T03:12:20;10.70;99.90
25554;DHT22;13446;50.926;5.332;2024-02-21T03:14:56;10.80;99.90
25554;DHT22;13446;50.926;5.332;2024-02-21T03:17:25;10.80;99.90
25554;DHT22;13446;50.926;5.332;2024-02-21T03:19:57;10.80;99.90
25554;DHT22;13446;50.926;5.332;2024-02-21T03:22:53;10.60;99.90
25554;DHT22;13446;50.926;5.332;2024-02-21T03:25:19;10.60;99.90
25554;DHT22;13446;50.926;5.332;2024-02-21T03:28:03;10.70;99.90
25554;DHT22;13446;50.926;5.332;2024-02-21T03:30:38;10.80;99.90
25554;DHT22;13446;50.926;5.332;2024-02-21T03:33:10;10.60;99.90
25554;DHT22;13446;50.926;5.332;2024-02-21T03:35:35;10.50;99.90
25554;DHT22;13446;50.926;5.332;2024-02-21T03:38:03;10.40;99.90
25554;DHT22;13446;50.926;5.332;2024-02-21T03:40:28;10.50;99.90
25554;DHT22;13446;50.926;5.332;2024-02-21T03:42:54;10.40;99.90
25554;DHT22;13446;50.926;5.332;2024-02-21T03:45:20;10.40;99.90
25554;DHT22;13446;50.926;5.332;2024-02-21T03:47:49;10.50;99.90
25554;DHT22;13446;50.926;5.332;2024-02-21T03:50:15;10.40;99.90
25554;DHT22;13446;50.926;5.332;2024-02-21T03:52:41;10.30;99.90
25554;DHT22;13446;50.926;5.332;2024-02-21T03:55:08;10.20;99.90
25554;DHT22;13446;50.926;5.332;2024-02-21T03:57:34;10.30;99.90
25554;DHT22;13446;50.926;5.332;2024-02-21T04:00:02;10.30;99.90
25554;DHT22;13446;50.926;5.332;2024-02-21T04:02:29;10.30;99.90
25554;DHT22;13446;50.926;5.332;2024-02-21T04:04:54;10.30;99.90
25554;DHT22;13446;50.926;5.332;2024-02-21T04:12:31;10.30;99.90
25554;DHT22;13446;50.926;5.332;2024-02-21T04:14:56;10.30;99.90
25554;DHT22;13446;50.926;5.332;2024-02-21T04:17:25;10.30;99.90
25554;DHT22;13446;50.926;5.332;2024-02-21T04:20:06;10.40;99.90
25554;DHT22;13446;50.926;5.332;2024-02-21T04:22:33;10.10;99.90
25554;DHT22;13446;50.926;5.332;2024-02-21T04:25:02;10.10;99.90
25554;DHT22;13446;50.926;5.332;2024-02-21T04:27:29;10.10;99.90
25554;DHT22;13446;50.926;5.332;2024-02-21T04:29:55;10.20;99.90
25554;DHT22;13446;50.926;5.332;2024-02-21T04:32:24;10.20;99.90
25554;DHT22;13446;50.926;5.332;2024-02-21T04:34:52;10.30;99.90
25554;DHT22;13446;50.926;5.332;2024-02-21T04:37:18;10.40;99.90
25554;DHT22;13446;50.926;5.332;2024-02-21T04:39:45;10.40;99.90
25554;DHT22;13446;50.926;5.332;2024-02-21T04:42:11;10.30;99.90
25554;DHT22;13446;50.926;5.332;2024-02-21T04:44:37;10.20;99.90
25554;DHT22;13446;50.926;5.332;2024-02-21T04:50:09;10.10;99.90
25554;DHT22;13446;50.926;5.332;2024-02-21T04:59:17;10.00;99.90
25554;DHT22;13446;50.926;5.332;2024-02-21T05:01:59;10.00;99.90
25554;DHT22;13446;50.926;5.332;2024-02-21T05:04:54;10.10;99.90
25554;DHT22;13446;50.926;5.332;2024-02-21T05:07:41;10.10;99.90
25554;DHT22;13446;50.926;5.332;2024-02-21T05:10:07;10.10;99.90
25554;DHT22;13446;50.926;5.332;2024-02-21T05:12:43;10.00;99.90
25554;DHT22;13446;50.926;5.332;2024-02-21T05:18:53;10.00;99.90
25554;DHT22;13446;50.926;5.332;2024-02-21T05:21:34;10.10;99.90
25554;DHT22;13446;50.926;5.332;2024-02-21T05:24:16;10.00;99.90
25554;DHT22;13446;50.926;5.332;2024-02-21T05:26:48;10.10;99.90
25554;DHT22;13446;50.926;5.332;2024-02-21T05:29:42;10.20;99.90
25554;DHT22;13446;50.926;5.332;2024-02-21T05:32:11;10.20;99.90
25554;DHT22;13446;50.926;5.332;2024-02-21T05:34:37;10.00;99.90
25554;DHT22;13446;50.926;5.332;2024-02-21T05:37:03;10.10;99.90
25554;DHT22;13446;50.926;5.332;2024-02-21T05:39:29;10.10;99.90
25554;DHT22;13446;50.926;5.332;2024-02-21T05:41:55;10.00;99.90
25554;DHT22;13446;50.926;5.332;2024-02-21T05:44:32;10.00;99.90
25554;DHT22;13446;50.926;5.332;2024-02-21T05:46:58;10.10;99.90
25554;DHT22;13446;50.926;5.332;2024-02-21T05:49:23;10.00;99.90
25554;DHT22;13446;50.926;5.332;2024-02-21T05:51:49;10.10;99.90
25554;DHT22;13446;50.926;5.332;2024-02-21T05:54:15;10.00;99.90
25554;DHT22;13446;50.926;5.332;2024-02-21T05:56:47;10.10;99.90
25554;DHT22;13446;50.926;5.332;2024-02-21T05:59:13;10.10;99.90
25554;DHT22;13446;50.926;5.332;2024-02-21T06:01:39;10.00;99.90
25554;DHT22;13446;50.926;5.332;2024-02-21T06:04:04;10.00;99.90
25554;DHT22;13446;50.926;5.332;2024-02-21T06:06:30;9.90;99.90
25554;DHT22;13446;50.926;5.332;2024-02-21T06:08:56;10.00;99.90
25554;DHT22;13446;50.926;5.332;2024-02-21T06:11:25;9.90;99.90
25554;DHT22;13446;50.926;5.332;2024-02-21T06:13:51;9.90;99.90
25554;DHT22;13446;50.926;5.332;2024-02-21T06:16:17;9.70;99.90
25554;DHT22;13446;50.926;5.332;2024-02-21T06:18:42;9.70;99.90
25554;DHT22;13446;50.926;5.332;2024-02-21T06:21:08;9.80;99.90
25554;DHT22;13446;50.926;5.332;2024-02-21T06:23:37;9.80;99.90
25554;DHT22;13446;50.926;5.332;2024-02-21T06:26:04;9.90;99.90
25554;DHT22;13446;50.926;5.332;2024-02-21T06:28:42;9.90;99.90
25554;DHT22;13446;50.926;5.332;2024-02-21T06:31:08;9.70;99.90
25554;DHT22;13446;50.926;5.332;2024-02-21T06:33:34;9.70;99.90
25554;DHT22;13446;50.926;5.332;2024-02-21T06:36:00;9.70;99.90
25554;DHT22;13446;50.926;5.332;2024-02-21T06:41:02;9.60;99.90
25554;DHT22;13446;50.926;5.332;2024-02-21T06:43:30;9.60;99.90
25554;DHT22;13446;50.926;5.332;2024-02-21T06:45:57;9.60;99.90
25554;DHT22;13446;50.926;5.332;2024-02-21T06:48:23;9.50;99.90
25554;DHT22;13446;50.926;5.332;2024-02-21T06:50:48;9.40;99.90
25554;DHT22;13446;50.926;5.332;2024-02-21T07:06:11;9.20;99.90
25554;DHT22;13446;50.926;5.332;2024-02-21T07:08:37;9.20;99.90
25554;DHT22;13446;50.926;5.332;2024-02-21T07:11:05;9.20;99.90
25554;DHT22;13446;50.926;5.332;2024-02-21T07:13:35;9.30;99.90
25554;DHT22;13446;50.926;5.332;2024-02-21T07:16:01;9.20;99.90
25554;DHT22;13446;50.926;5.332;2024-02-21T07:20:59;9.30;99.90
25554;DHT22;13446;50.926;5.332;2024-02-21T07:23:34;9.40;99.90
25554;DHT22;13446;50.926;5.332;2024-02-21T07:26:05;9.30;99.90
25554;DHT22;13446;50.926;5.332;2024-02-21T07:36:00;9.10;99.90
25554;DHT22;13446;50.926;5.332;2024-02-21T07:38:26;9.10;99.90
25554;DHT22;13446;50.926;5.332;2024-02-21T07:40:53;9.10;99.90
25554;DHT22;13446;50.926;5.332;2024-02-21T08:00:02;9.40;99.90
25554;DHT22;13446;50.926;5.332;2024-02-21T08:02:48;9.30;99.90
25554;DHT22;13446;50.926;5.332;2024-02-21T10:51:17;12.20;99.90
25554;DHT22;13446;50.926;5.332;2024-02-21T10:56:41;12.70;99.90
25554;DHT22;13446;50.926;5.332;2024-02-21T10:59:13;12.70;99.90
25554;DHT22;13446;50.926;5.332;2024-02-21T11:01:39;12.60;99.90
25554;DHT22;13446;50.926;5.332;2024-02-21T11:04:10;12.70;99.90
25554;DHT22;13446;50.926;5.332;2024-02-21T11:06:38;12.70;99.90
25554;DHT22;13446;50.926;5.332;2024-02-21T11:09:08;12.90;99.90
25554;DHT22;13446;50.926;5.332;2024-02-21T11:11:44;12.80;99.90
25554;DHT22;13446;50.926;5.332;2024-02-21T11:14:10;12.80;99.90
25554;DHT22;13446;50.926;5.332;2024-02-21T11:16:40;12.70;99.90
25554;DHT22;13446;50.926;5.332;2024-02-21T11:19:19;12.90;99.90
25554;DHT22;13446;50.926;5.332;2024-02-21T11:21:45;13.20;99.90
25554;DHT22;13446;50.926;5.332;2024-02-21T11:24:13;13.30;99.90
25554;DHT22;13446;50.926;5.332;2024-02-21T11:26:40;13.10;99.90
25554;DHT22;13446;50.926;5.332;2024-02-21T11:29:09;13.00;99.90
25554;DHT22;13446;50.926;5.332;2024-02-21T11:31:45;12.90;99.90
25554;DHT22;13446;50.926;5.332;2024-02-21T11:34:17;13.00;99.90
25554;DHT22;13446;50.926;5.332;2024-02-21T11:36:51;13.00;99.90
25554;DHT22;13446;50.926;5.332;2024-02-21T11:39:25;13.00;99.90
25554;DHT22;13446;50.926;5.332;2024-02-21T11:42:10;13.20;99.90
25554;DHT22;13446;50.926;5.332;2024-02-21T11:44:36;13.20;99.90
25554;DHT22;13446;50.926;5.332;2024-02-21T11:47:06;13.10;99.90
25554;DHT22;13446;50.926;5.332;2024-02-21T11:49:38;13.20;99.90
25554;DHT22;13446;50.926;5.332;2024-02-21T11:52:07;13.10;99.90
25554;DHT22;13446;50.926;5.332;2024-02-21T11:54:34;13.20;99.90
25554;DHT22;13446;50.926;5.332;2024-02-21T11:57:00;13.40;99.90
25554;DHT22;13446;50.926;5.332;2024-02-21T11:59:29;13.70;99.90
25554;DHT22;13446;50.926;5.332;2024-02-21T12:02:00;13.70;99.90
25554;DHT22;13446;50.926;5.332;2024-02-21T12:04:28;13.70;99.90
25554;DHT22;13446;50.926;5.332;2024-02-21T12:06:59;13.80;99.90
25554;DHT22;13446;50.926;5.332;2024-02-21T12:09:25;13.90;99.90
25554;DHT22;13446;50.926;5.332;2024-02-21T12:12:05;14.10;99.90
25554;DHT22;13446;50.926;5.332;2024-02-21T12:14:32;14.10;99.90
25554;DHT22;13446;50.926;5.332;2024-02-21T12:16:59;13.80;99.90
25554;DHT22;13446;50.926;5.332;2024-02-21T12:19:28;13.50;99.90
25554;DHT22;13446;50.926;5.332;2024-02-21T12:21:54;13.60;99.90
25554;DHT22;13446;50.926;5.332;2024-02-21T12:24:24;13.30;99.90
25554;DHT22;13446;50.926;5.332;2024-02-21T12:26:54;13.20;99.90
25554;DHT22;13446;50.926;5.332;2024-02-21T12:29:20;13.00;99.90
25554;DHT22;13446;50.926;5.332;2024-02-21T12:31:48;13.00;99.90
25554;DHT22;13446;50.926;5.332;2024-02-21T12:34:16;13.10;99.90
25554;DHT22;13446;50.926;5.332;2024-02-21T12:36:43;13.10;99.90
25554;DHT22;13446;50.926;5.332;2024-02-21T12:39:10;13.10;99.90
25554;DHT22;13446;50.926;5.332;2024-02-21T12:41:37;13.10;99.90
25554;DHT22;13446;50.926;5.332;2024-02-21T12:44:14;13.00;99.90
25554;DHT22;13446;50.926;5.332;2024-02-21T12:46:47;13.00;99.90
25554;DHT22;13446;50.926;5.332;2024-02-21T12:49:18;12.90;99.90
25554;DHT22;13446;50.926;5.332;2024-02-21T12:51:46;12.80;99.90
25554;DHT22;13446;50.926;5.332;2024-02-21T12:54:14;12.70;99.90
25554;DHT22;13446;50.926;5.332;2024-02-21T12:56:40;12.60;99.90
25554;DHT22;13446;50.926;5.332;2024-02-21T12:59:07;12.70;99.90
25554;DHT22;13446;50.926;5.332;2024-02-21T13:01:38;12.70;99.90
25554;DHT22;13446;50.926;5.332;2024-02-21T13:04:04;12.50;99.90
25554;DHT22;13446;50.926;5.332;2024-02-21T13:06:30;12.70;99.90
25554;DHT22;13446;50.926;5.332;2024-02-21T13:08:55;12.70;99.90
25554;DHT22;13446;50.926;5.332;2024-02-21T13:11:21;12.60;99.90
25554;DHT22;13446;50.926;5.332;2024-02-21T13:13:50;12.50;99.90
25554;DHT22;13446;50.926;5.332;2024-02-21T13:16:17;12.60;99.90
25554;DHT22;13446;50.926;5.332;2024-02-21T13:18:42;12.40;99.90
25554;DHT22;13446;50.926;5.332;2024-02-21T13:21:09;12.40;99.90
25554;DHT22;13446;50.926;5.332;2024-02-21T13:23:34;12.50;99.90
25554;DHT22;13446;50.926;5.332;2024-02-21T13:26:00;12.50;99.90
25554;DHT22;13446;50.926;5.332;2024-02-21T13:28:26;12.70;99.90
25554;DHT22;13446;50.926;5.332;2024-02-21T13:31:02;12.70;99.90
25554;DHT22;13446;50.926;5.332;2024-02-21T13:33:28;12.70;99.90
25554;DHT22;13446;50.926;5.332;2024-02-21T13:35:54;12.60;99.90
25554;DHT22;13446;50.926;5.332;2024-02-21T13:38:20;12.60;99.90
25554;DHT22;13446;50.926;5.332;2024-02-21T13:40:49;12.70;99.90
25554;DHT22;13446;50.926;5.332;2024-02-21T13:43:17;12.60;99.90
25554;DHT22;13446;50.926;5.332;2024-02-21T13:45:56;12.60;99.90
25554;DHT22;13446;50.926;5.332;2024-02-21T13:48:23;12.50;99.90
25554;DHT22;13446;50.926;5.332;2024-02-21T13:50:53;12.50;99.90
25554;DHT22;13446;50.926;5.332;2024-02-21T13:53:21;12.60;99.90
25554;DHT22;13446;50.926;5.332;2024-02-21T13:55:49;12.70;99.90
25554;DHT22;13446;50.926;5.332;2024-02-21T13:58:21;12.60;99.90
25554;DHT22;13446;50.926;5.332;2024-02-21T14:00:47;12.50;99.90
25554;DHT22;13446;50.926;5.332;2024-02-21T14:03:14;12.60;99.90
25554;DHT22;13446;50.926;5.332;2024-02-21T14:06:01;12.60;99.90
25554;DHT22;13446;50.926;5.332;2024-02-21T14:08:27;12.50;99.90
25554;DHT22;13446;50.926;5.332;2024-02-21T14:10:59;12.50;99.90
25554;DHT22;13446;50.926;5.332;2024-02-21T14:16:47;12.40;99.90
25554;DHT22;13446;50.926;5.332;2024-02-21T14:19:28;12.40;99.90
25554;DHT22;13446;50.926;5.332;2024-02-21T14:21:58;12.40;99.90
25554;DHT22;13446;50.926;5.332;2024-02-21T14:30:51;12.30;99.90
25554;DHT22;13446;50.926;5.332;2024-02-21T14:33:42;12.20;99.90
25554;DHT22;13446;50.926;5.332;2024-02-21T14:36:07;12.10;99.90
25554;DHT22;13446;50.926;5.332;2024-02-21T14:38:33;12.20;99.90
25554;DHT22;13446;50.926;5.332;2024-02-21T14:41:00;12.20;99.90
25554;DHT22;13446;50.926;5.332;2024-02-21T14:43:26;12.40;99.90
25554;DHT22;13446;50.926;5.332;2024-02-21T14:45:59;12.40;99.90
25554;DHT22;13446;50.926;5.332;2024-02-21T14:51:47;12.30;99.90
25554;DHT22;13446;50.926;5.332;2024-02-21T14:54:25;12.30;99.90
25554;DHT22;13446;50.926;5.332;2024-02-21T14:57:20;12.30;99.90
25554;DHT22;13446;50.926;5.332;2024-02-21T14:59:51;12.00;99.90
25554;DHT22;13446;50.926;5.332;2024-02-21T15:02:25;12.00;99.90
25554;DHT22;13446;50.926;5.332;2024-02-21T15:04:50;12.10;99.90
25554;DHT22;13446;50.926;5.332;2024-02-21T15:07:17;12.00;99.90
25554;DHT22;13446;50.926;5.332;2024-02-21T15:09:43;12.00;99.90
25554;DHT22;13446;50.926;5.332;2024-02-21T15:12:09;11.90;99.90
25554;DHT22;13446;50.926;5.332;2024-02-21T15:14:35;11.90;99.90
25554;DHT22;13446;50.926;5.332;2024-02-21T15:17:04;11.70;99.90
25554;DHT22;13446;50.926;5.332;2024-02-21T15:19:30;11.50;99.90
25554;DHT22;13446;50.926;5.332;2024-02-21T15:21:55;11.30;99.90
25554;DHT22;13446;50.926;5.332;2024-02-21T15:24:21;11.20;99.90
25554;DHT22;13446;50.926;5.332;2024-02-21T15:26:47;11.20;99.90
25554;DHT22;13446;50.926;5.332;2024-02-21T15:29:15;11.10;99.90
25554;DHT22;13446;50.926;5.332;2024-02-21T15:31:42;11.00;99.90
25554;DHT22;13446;50.926;5.332;2024-02-21T15:34:13;11.00;99.90
25554;DHT22;13446;50.926;5.332;2024-02-21T15:36:41;10.90;99.90
25554;DHT22;13446;50.926;5.332;2024-02-21T15:39:08;10.90;99.90
25554;DHT22;13446;50.926;5.332;2024-02-21T15:41:33;10.70;99.90
25554;DHT22;13446;50.926;5.332;2024-02-21T15:44:06;10.60;99.90
25554;DHT22;13446;50.926;5.332;2024-02-21T15:46:32;10.60;99.90
25554;DHT22;13446;50.926;5.332;2024-02-21T15:49:03;10.50;99.90
25554;DHT22;13446;50.926;5.332;2024-02-21T15:51:49;10.40;99.90
25554;DHT22;13446;50.926;5.332;2024-02-21T15:54:21;10.40;99.90
25554;DHT22;13446;50.926;5.332;2024-02-21T15:57:05;10.40;99.90
25554;DHT22;13446;50.926;5.332;2024-02-21T15:59:43;10.30;99.90
25554;DHT22;13446;50.926;5.332;2024-02-21T16:02:11;10.30;99.90
25554;DHT22;13446;50.926;5.332;2024-02-21T16:04:55;10.30;99.90
25554;DHT22;13446;50.926;5.332;2024-02-21T16:07:37;10.30;99.90
25554;DHT22;13446;50.926;5.332;2024-02-21T16:10:04;10.20;99.90
25554;DHT22;13446;50.926;5.332;2024-02-21T16:12:31;10.00;99.90
25554;DHT22;13446;50.926;5.332;2024-02-21T16:14:57;10.00;99.90
25554;DHT22;13446;50.926;5.332;2024-02-21T16:17:22;9.90;99.90
25554;DHT22;13446;50.926;5.332;2024-02-21T16:19:49;9.90;99.90
25554;DHT22;13446;50.926;5.332;2024-02-21T16:22:24;9.90;99.90
25554;DHT22;13446;50.926;5.332;2024-02-21T16:24:50;9.80;99.90
25554;DHT22;13446;50.926;5.332;2024-02-21T16:27:16;9.80;99.90
25554;DHT22;13446;50.926;5.332;2024-02-21T16:29:49;9.80;99.90
25554;DHT22;13446;50.926;5.332;2024-02-21T16:32:16;9.80;99.90
25554;DHT22;13446;50.926;5.332;2024-02-21T16:34:43;9.80;99.90
25554;DHT22;13446;50.926;5.332;2024-02-21T16:37:11;9.70;99.90
25554;DHT22;13446;50.926;5.332;2024-02-21T16:42:57;9.70;99.90
25554;DHT22;13446;50.926;5.332;2024-02-21T16:45:41;9.70;99.90
25554;DHT22;13446;50.926;5.332;2024-02-21T16:48:07;9.70;99.90
25554;DHT22;13446;50.926;5.332;2024-02-21T16:50:48;9.70;99.90
25554;DHT22;13446;50.926;5.332;2024-02-21T16:53:21;9.70;99.90
25554;DHT22;13446;50.926;5.332;2024-02-21T16:55:46;9.70;99.90
25554;DHT22;13446;50.926;5.332;2024-02-21T16:58:14;9.70;99.90
25554;DHT22;13446;50.926;5.332;2024-02-21T17:00:41;9.70;99.90
25554;DHT22;13446;50.926;5.332;2024-02-21T17:03:08;9.60;99.90
25554;DHT22;13446;50.926;5.332;2024-02-21T17:05:37;9.60;99.90
25554;DHT22;13446;50.926;5.332;2024-02-21T17:08:05;9.70;99.90
25554;DHT22;13446;50.926;5.332;2024-02-21T17:10:33;9.60;99.90
25554;DHT22;13446;50.926;5.332;2024-02-21T17:12:58;9.60;99.90
25554;DHT22;13446;50.926;5.332;2024-02-21T17:15:24;9.60;99.90
25554;DHT22;13446;50.926;5.332;2024-02-21T17:17:50;9.60;99.90
25554;DHT22;13446;50.926;5.332;2024-02-21T17:20:16;9.60;99.90
25554;DHT22;13446;50.926;5.332;2024-02-21T17:22:41;9.60;99.90
25554;DHT22;13446;50.926;5.332;2024-02-21T17:25:07;9.60;99.90
25554;DHT22;13446;50.926;5.332;2024-02-21T17:27:36;9.60;99.90
25554;DHT22;13446;50.926;5.332;2024-02-21T17:30:09;9.60;99.90
25554;DHT22;13446;50.926;5.332;2024-02-21T17:39:50;9.70;99.90
25554;DHT22;13446;50.926;5.332;2024-02-21T17:42:47;9.60;99.90
25554;DHT22;13446;50.926;5.332;2024-02-21T17:45:24;9.60;99.90
25554;DHT22;13446;50.926;5.332;2024-02-21T17:47:53;9.60;99.90
25554;DHT22;13446;50.926;5.332;2024-02-21T17:50:22;9.60;99.90
25554;DHT22;13446;50.926;5.332;2024-02-21T17:56:11;9.50;99.90
25554;DHT22;13446;50.926;5.332;2024-02-21T17:58:45;9.50;99.90
25554;DHT22;13446;50.926;5.332;2024-02-21T18:01:23;9.50;99.90
25554;DHT22;13446;50.926;5.332;2024-02-21T18:03:57;9.50;99.90
25554;DHT22;13446;50.926;5.332;2024-02-21T18:10:17;9.50;99.90
25554;DHT22;13446;50.926;5.332;2024-02-21T18:12:42;9.60;99.90
25554;DHT22;13446;50.926;5.332;2024-02-21T18:15:09;9.50;99.90
25554;DHT22;13446;50.926;5.332;2024-02-21T18:23:52;9.40;99.90
25554;DHT22;13446;50.926;5.332;2024-02-21T18:29:45;9.50;99.90
25554;DHT22;13446;50.926;5.332;2024-02-21T18:35:21;9.50;99.90
25554;DHT22;13446;50.926;5.332;2024-02-21T18:37:47;9.60;99.90
25554;DHT22;13446;50.926;5.332;2024-02-21T18:40:14;9.70;99.90
25554;DHT22;13446;50.926;5.332;2024-02-21T19:04:08;9.50;99.90
25554;DHT22;13446;50.926;5.332;2024-02-21T19:06:35;9.50;99.90
25554;DHT22;13446;50.926;5.332;2024-02-21T19:09:03;9.50;99.90
25554;DHT22;13446;50.926;5.332;2024-02-21T19:11:30;9.50;99.90
25554;DHT22;13446;50.926;5.332;2024-02-21T19:14:06;9.50;99.90
25554;DHT22;13446;50.926;5.332;2024-02-21T19:22:24;9.50;99.90
25554;DHT22;13446;50.926;5.332;2024-02-21T19:25:37;9.50;99.90
25554;DHT22;13446;50.926;5.332;2024-02-21T19:28:16;9.60;99.90
25554;DHT22;13446;50.926;5.332;2024-02-21T19:30:53;9.60;99.90
25554;DHT22;13446;50.926;5.332;2024-02-21T19:33:20;9.70;99.90
25554;DHT22;13446;50.926;5.332;2024-02-21T19:35:45;9.70;99.90
25554;DHT22;13446;50.926;5.332;2024-02-21T19:38:11;9.90;99.90
25554;DHT22;13446;50.926;5.332;2024-02-21T19:40:43;9.90;99.90
25554;DHT22;13446;50.926;5.332;2024-02-21T19:43:18;9.90;99.90
25554;DHT22;13446;50.926;5.332;2024-02-21T19:45:57;9.90;99.90
25554;DHT22;13446;50.926;5.332;2024-02-21T19:48:22;9.80;99.90
25554;DHT22;13446;50.926;5.332;2024-02-21T19:50:58;9.70;99.90
25554;DHT22;13446;50.926;5.332;2024-02-21T19:53:24;9.70;99.90
25554;DHT22;13446;50.926;5.332;2024-02-21T19:55:51;9.70;99.90
25554;DHT22;13446;50.926;5.332;2024-02-21T19:58:17;9.70;99.90
25554;DHT22;13446;50.926;5.332;2024-02-21T20:00:46;9.70;99.90
25554;DHT22;13446;50.926;5.332;2024-02-21T20:03:13;9.70;99.90
25554;DHT22;13446;50.926;5.332;2024-02-21T20:05:39;9.70;99.90
25554;DHT22;13446;50.926;5.332;2024-02-21T20:08:09;9.70;99.90
25554;DHT22;13446;50.926;5.332;2024-02-21T20:15:55;9.70;99.90
25554;DHT22;13446;50.926;5.332;2024-02-21T20:19:00;9.70;99.90
25554;DHT22;13446;50.926;5.332;2024-02-21T20:21:26;9.70;99.90
25554;DHT22;13446;50.926;5.332;2024-02-21T20:24:01;9.90;99.90
25554;DHT22;13446;50.926;5.332;2024-02-21T20:26:29;9.70;99.90
25554;DHT22;13446;50.926;5.332;2024-02-21T20:29:01;9.80;99.90
25554;DHT22;13446;50.926;5.332;2024-02-21T20:31:30;9.90;99.90
25554;DHT22;13446;50.926;5.332;2024-02-21T20:34:09;9.90;99.90
25554;DHT22;13446;50.926;5.332;2024-02-21T20:36:37;9.90;99.90
25554;DHT22;13446;50.926;5.332;2024-02-21T20:39:20;9.80;99.90
25554;DHT22;13446;50.926;5.332;2024-02-21T20:41:45;9.90;99.90
25554;DHT22;13446;50.926;5.332;2024-02-21T20:44:15;9.90;99.90
25554;DHT22;13446;50.926;5.332;2024-02-21T20:46:46;9.90;99.90
25554;DHT22;13446;50.926;5.332;2024-02-21T20:49:15;9.90;99.90
25554;DHT22;13446;50.926;5.332;2024-02-21T20:51:43;10.00;99.90
25554;DHT22;13446;50.926;5.332;2024-02-21T20:54:09;10.00;99.90
25554;DHT22;13446;50.926;5.332;2024-02-21T20:56:38;9.90;99.90
25554;DHT22;13446;50.926;5.332;2024-02-21T20:59:13;9.90;99.90
25554;DHT22;13446;50.926;5.332;2024-02-21T21:01:47;9.80;99.90
25554;DHT22;13446;50.926;5.332;2024-02-21T21:04:42;9.90;99.90
25554;DHT22;13446;50.926;5.332;2024-02-21T21:07:19;10.00;99.90
25554;DHT22;13446;50.926;5.332;2024-02-21T21:09:56;10.00;99.90
25554;DHT22;13446;50.926;5.332;2024-02-21T21:12:43;10.00;99.90